Time;durP1;ratioP1;P1;durP2;ratioP2;P2;SDS_P1;SDS_P2;PMS_P1;PMS_P2;Temp;Humidity;BMP_temperature;BMP_pressure;BME280_temperature;BME280_humidity;BME280_pressure;Samples;Min_cycle;Max_cycle;Signal;HPM_P1;HPM_P2
2022/09/26 00:01:31;;;;;;;1.10;0.77;;;16.90;58.20;;;;;;5009567;28;20471;-72
2022/09/26 00:04:01;;;;;;;1.00;0.87;;;16.90;58.10;;;;;;5018538;28;20467;-73
2022/09/26 00:06:30;;;;;;;1.13;0.80;;;16.90;58.20;;;;;;5000488;28;20494;-72
2022/09/26 00:08:59;;;;;;;1.37;1.20;;;16.90;58.20;;;;;;5008600;28;20537;-72
2022/09/26 00:11:29;;;;;;;2.03;0.70;;;16.90;58.10;;;;;;4993837;28;21018;-73
2022/09/26 00:14:07;;;;;;;1.17;1.07;;;16.90;58.20;;;;;;5002900;28;20498;-74
2022/09/26 00:16:36;;;;;;;1.33;0.90;;;16.90;58.20;;;;;;5011774;28;20468;-72
2022/09/26 00:19:05;;;;;;;1.50;1.27;;;16.90;58.30;;;;;;5009940;28;20467;-72
2022/09/26 00:21:33;;;;;;;1.60;1.00;;;16.90;58.10;;;;;;4992899;28;20429;-73
2022/09/26 00:24:02;;;;;;;1.00;0.90;;;16.90;58.10;;;;;;5007915;28;20444;-73
2022/09/26 00:26:32;;;;;;;1.17;0.80;;;16.90;58.10;;;;;;5007222;28;20580;-72
2022/09/26 00:29:06;;;;;;;4.50;0.87;;;16.90;58.10;;;;;;4998416;28;20441;-72
2022/09/26 00:31:38;;;;;;;1.73;0.90;;;16.90;58.10;;;;;;5006784;28;20444;-72
2022/09/26 00:34:07;;;;;;;1.57;1.10;;;16.90;58.10;;;;;;5004272;28;20463;-72
2022/09/26 00:36:36;;;;;;;1.20;1.07;;;16.90;58.20;;;;;;5026010;28;20844;-72
2022/09/26 00:39:07;;;;;;;1.20;1.07;;;16.90;58.20;;;;;;4998111;28;20448;-73
2022/09/26 00:41:37;;;;;;;0.70;0.60;;;16.90;58.20;;;;;;5010565;28;20441;-72
2022/09/26 00:44:41;;;;;;;4.70;1.27;;;16.80;58.10;;;;;;5002898;28;20834;-72
2022/09/26 00:47:37;;;;;;;1.10;1.00;;;16.80;58.10;;;;;;5012871;28;20842;-73
2022/09/26 00:50:12;;;;;;;2.93;1.50;;;16.80;58.20;;;;;;4993635;28;20562;-72
2022/09/26 00:52:46;;;;;;;1.03;0.93;;;16.80;58.10;;;;;;5006572;28;20830;-73
2022/09/26 00:55:19;;;;;;;1.73;1.13;;;16.80;58.10;;;;;;4993009;28;21373;-72
2022/09/26 00:57:54;;;;;;;0.60;0.60;;;16.80;58.20;;;;;;5016319;28;20457;-73
2022/09/26 01:00:24;;;;;;;1.13;1.03;;;16.80;58.20;;;;;;4993746;28;20491;-72
2022/09/26 01:02:53;;;;;;;1.50;1.00;;;16.80;58.20;;;;;;5001527;28;20439;-73
2022/09/26 01:05:23;;;;;;;0.83;0.73;;;16.80;58.10;;;;;;5009844;28;20487;-72
2022/09/26 01:07:53;;;;;;;1.00;0.80;;;16.80;58.20;;;;;;5016087;28;20531;-73
2022/09/26 01:10:23;;;;;;;1.30;1.13;;;16.80;58.20;;;;;;5010122;28;21081;-73
2022/09/26 01:12:52;;;;;;;0.87;0.87;;;16.80;58.10;;;;;;4993924;28;20482;-73
2022/09/26 01:15:20;;;;;;;1.90;0.97;;;16.80;58.10;;;;;;5007931;28;20560;-73
2022/09/26 01:17:51;;;;;;;1.90;1.37;;;16.80;58.10;;;;;;4996289;28;20445;-72
2022/09/26 01:20:29;;;;;;;1.60;0.97;;;16.80;58.10;;;;;;5004669;28;20507;-72
2022/09/26 01:23:47;;;;;;;1.80;1.20;;;16.80;58.10;;;;;;5002259;28;20819;-72
2022/09/26 01:26:45;;;;;;;1.40;1.10;;;16.80;58.10;;;;;;4995441;28;20464;-72
2022/09/26 01:29:40;;;;;;;2.70;1.37;;;16.80;58.20;;;;;;5014834;28;20433;-72
2022/09/26 01:35:12;;;;;;;1.93;1.10;;;16.80;58.20;;;;;;5011919;28;20472;-73
2022/09/26 01:37:50;;;;;;;1.93;1.40;;;16.80;58.30;;;;;;4997882;28;20803;-73
2022/09/26 01:40:25;;;;;;;1.17;1.07;;;16.80;58.20;;;;;;5025133;28;20503;-72
2022/09/26 01:43:05;;;;;;;0.93;0.83;;;16.80;58.20;;;;;;4997501;28;20922;-73
2022/09/26 01:45:43;;;;;;;2.70;1.53;;;16.80;58.20;;;;;;4995470;28;20526;-72
2022/09/26 01:48:18;;;;;;;1.20;1.00;;;16.80;58.30;;;;;;5007666;28;20537;-73
2022/09/26 01:50:49;;;;;;;3.73;1.00;;;16.70;58.20;;;;;;4995249;28;21003;-73
2022/09/26 01:53:22;;;;;;;1.23;0.77;;;16.70;58.20;;;;;;4999889;28;20459;-73
2022/09/26 01:55:59;;;;;;;2.50;1.77;;;16.70;58.20;;;;;;5004604;28;20479;-72
2022/09/26 01:58:33;;;;;;;1.90;1.57;;;16.70;58.10;;;;;;5004273;28;20440;-72
2022/09/26 02:01:07;;;;;;;0.97;0.70;;;16.70;58.30;;;;;;5004215;28;20530;-72
2022/09/26 02:03:42;;;;;;;2.53;1.47;;;16.70;58.20;;;;;;5015193;28;20432;-73
2022/09/26 02:06:14;;;;;;;1.50;1.40;;;16.70;58.20;;;;;;4999276;28;20511;-73
2022/09/26 02:08:48;;;;;;;1.87;1.27;;;16.70;58.10;;;;;;4995978;28;20457;-73
2022/09/26 02:11:23;;;;;;;2.17;1.40;;;16.70;58.20;;;;;;5013799;28;20837;-73
2022/09/26 02:13:56;;;;;;;1.30;1.20;;;16.70;58.20;;;;;;4981454;28;20512;-72
2022/09/26 02:16:29;;;;;;;1.33;1.13;;;16.70;58.20;;;;;;4994380;28;20487;-75
2022/09/26 02:19:06;;;;;;;2.30;1.13;;;16.70;58.10;;;;;;4993640;28;20450;-72
2022/09/26 02:21:35;;;;;;;1.40;1.20;;;16.70;58.20;;;;;;5006106;28;20486;-73
2022/09/26 02:24:03;;;;;;;6.67;1.43;;;16.70;58.20;;;;;;5041633;23;20477;-68
2022/09/26 02:26:32;;;;;;;1.10;1.00;;;16.70;58.20;;;;;;4954754;28;20547;-68
2022/09/26 02:29:01;;;;;;;1.33;1.20;;;16.70;58.20;;;;;;4977343;28;20449;-69
2022/09/26 02:31:34;;;;;;;1.50;1.20;;;16.70;58.20;;;;;;4959732;28;20584;-68
2022/09/26 02:34:05;;;;;;;2.50;1.50;;;16.70;58.20;;;;;;4956074;28;20473;-68
2022/09/26 02:36:33;;;;;;;2.10;1.20;;;16.70;58.20;;;;;;4956528;28;20458;-68
2022/09/26 02:39:04;;;;;;;2.20;1.10;;;16.70;58.20;;;;;;4959435;28;20459;-68
2022/09/26 02:41:42;;;;;;;1.80;1.53;;;16.60;58.10;;;;;;4972971;28;21041;-68
2022/09/26 02:44:24;;;;;;;4.17;1.90;;;16.60;58.20;;;;;;4972110;28;20435;-68
2022/09/26 02:47:15;;;;;;;1.20;1.10;;;16.60;58.10;;;;;;4971134;28;20463;-68
2022/09/26 02:50:01;;;;;;;3.10;1.20;;;16.60;58.20;;;;;;4954707;28;20451;-68
2022/09/26 02:52:39;;;;;;;1.37;1.20;;;16.60;58.10;;;;;;4962807;28;20442;-68
2022/09/26 02:55:17;;;;;;;2.40;1.10;;;16.60;58.10;;;;;;4980253;28;20481;-68
2022/09/26 02:57:54;;;;;;;1.97;1.57;;;16.60;58.20;;;;;;4995471;28;21059;-68
2022/09/26 03:00:27;;;;;;;2.67;1.20;;;16.60;58.20;;;;;;4985699;28;20996;-68
2022/09/26 03:03:02;;;;;;;1.63;1.53;;;16.60;58.20;;;;;;4946577;28;20446;-68
2022/09/26 03:05:34;;;;;;;1.80;0.97;;;16.60;58.30;;;;;;4985773;28;20828;-68
2022/09/26 03:08:08;;;;;;;1.73;1.07;;;16.60;58.20;;;;;;4973355;28;20532;-68
2022/09/26 03:10:39;;;;;;;1.17;1.07;;;16.60;58.30;;;;;;4954271;28;20528;-68
2022/09/26 03:13:12;;;;;;;1.53;1.00;;;16.60;58.20;;;;;;4953493;28;21045;-68
2022/09/26 03:15:43;;;;;;;1.17;1.07;;;16.60;58.30;;;;;;4950758;28;20997;-68
2022/09/26 03:18:19;;;;;;;1.37;1.27;;;16.60;58.30;;;;;;4953502;28;20426;-68
2022/09/26 03:20:49;;;;;;;2.00;1.50;;;16.60;58.30;;;;;;4952417;28;21077;-68
2022/09/26 03:23:20;;;;;;;2.13;1.20;;;16.60;58.30;;;;;;4952400;28;20950;-68
2022/09/26 03:25:59;;;;;;;1.53;1.43;;;16.60;58.30;;;;;;4960243;28;20848;-68
2022/09/26 03:28:28;;;;;;;1.83;1.30;;;16.60;58.30;;;;;;4952613;28;20934;-68
2022/09/26 03:31:04;;;;;;;1.20;1.10;;;16.60;58.20;;;;;;4967725;28;20479;-68
2022/09/26 03:33:45;;;;;;;1.50;1.40;;;16.60;58.30;;;;;;4953673;28;20505;-68
2022/09/26 03:36:15;;;;;;;1.30;1.20;;;16.50;58.20;;;;;;4951413;28;20478;-68
2022/09/26 03:38:43;;;;;;;2.00;1.20;;;16.50;58.10;;;;;;4951640;28;20450;-68
2022/09/26 03:41:31;;;;;;;1.60;1.13;;;16.50;58.20;;;;;;4956337;28;20505;-68
2022/09/26 03:44:08;;;;;;;1.77;1.20;;;16.50;58.20;;;;;;4952880;28;20453;-68
2022/09/26 03:46:56;;;;;;;1.33;1.17;;;16.50;58.20;;;;;;4968147;28;20510;-69
2022/09/26 03:49:24;;;;;;;1.70;1.47;;;16.50;58.20;;;;;;4936992;28;20472;-67
2022/09/26 03:51:56;;;;;;;2.10;1.43;;;16.50;58.10;;;;;;4961509;28;20447;-67
2022/09/26 03:54:25;;;;;;;0.90;0.80;;;16.50;58.10;;;;;;4934940;28;20526;-67
2022/09/26 03:56:54;;;;;;;1.90;1.00;;;16.50;58.20;;;;;;4959886;28;20989;-69
2022/09/26 03:59:22;;;;;;;1.90;1.10;;;16.50;58.10;;;;;;4978046;28;20449;-67
2022/09/26 04:01:52;;;;;;;1.07;0.90;;;16.50;58.10;;;;;;4975832;28;20465;-68
2022/09/26 04:04:20;;;;;;;1.20;1.10;;;16.50;59.30;;;;;;4966492;28;20484;-68
2022/09/26 04:06:50;;;;;;;1.00;0.90;;;16.50;58.10;;;;;;4952030;28;20470;-68
2022/09/26 04:09:20;;;;;;;1.17;1.07;;;16.50;58.20;;;;;;4951068;28;20447;-68
2022/09/26 04:11:51;;;;;;;2.40;1.10;;;16.50;58.10;;;;;;4981113;28;20455;-68
2022/09/26 04:14:21;;;;;;;1.97;1.10;;;16.50;58.10;;;;;;4968558;28;20534;-68
2022/09/26 04:16:55;;;;;;;1.97;1.30;;;16.40;58.10;;;;;;4959630;28;21010;-69
2022/09/26 04:19:28;;;;;;;1.20;0.77;;;16.40;58.00;;;;;;4963317;28;20443;-68
2022/09/26 04:21:58;;;;;;;1.97;1.00;;;16.50;58.10;;;;;;4968442;28;20533;-68
2022/09/26 04:24:28;;;;;;;0.83;0.70;;;16.40;58.00;;;;;;4966116;28;20553;-68
2022/09/26 04:26:56;;;;;;;1.57;0.70;;;16.40;58.00;;;;;;4960162;28;20494;-68
2022/09/26 04:29:26;;;;;;;2.13;1.17;;;16.50;58.00;;;;;;4957716;28;20474;-68
2022/09/26 04:32:18;;;;;;;1.80;1.03;;;16.40;57.80;;;;;;4968661;28;20455;-69
2022/09/26 04:35:06;;;;;;;1.83;1.00;;;16.40;57.90;;;;;;4965085;28;20467;-68
2022/09/26 04:37:35;;;;;;;4.10;1.30;;;16.40;58.10;;;;;;4974361;28;20434;-68
2022/09/26 04:40:08;;;;;;;1.53;0.90;;;16.40;58.00;;;;;;4961272;28;20478;-68
2022/09/26 04:42:40;;;;;;;1.13;0.90;;;16.40;57.90;;;;;;4953987;28;20488;-68
2022/09/26 04:45:10;;;;;;;0.73;0.73;;;16.40;58.00;;;;;;4950311;28;21135;-68
2022/09/26 04:47:38;;;;;;;1.33;0.93;;;16.40;57.90;;;;;;4951598;28;20877;-68
2022/09/26 04:50:32;;;;;;;0.90;0.80;;;16.40;58.00;;;;;;4967928;28;20871;-68
2022/09/26 04:53:11;;;;;;;0.90;0.77;;;16.40;57.90;;;;;;4950859;28;20871;-68
2022/09/26 04:55:53;;;;;;;3.93;0.90;;;16.40;58.00;;;;;;4966597;28;20900;-68
2022/09/26 04:58:22;;;;;;;1.00;0.90;;;16.40;57.90;;;;;;4951693;28;20450;-68
2022/09/26 05:00:51;;;;;;;1.40;0.90;;;16.40;57.90;;;;;;4966896;28;21001;-68
2022/09/26 05:03:35;;;;;;;1.40;0.87;;;16.40;57.80;;;;;;4951162;28;20454;-68
2022/09/26 05:06:07;;;;;;;0.90;0.70;;;16.40;57.90;;;;;;4971978;28;20470;-68
2022/09/26 05:08:36;;;;;;;2.50;0.97;;;16.40;57.80;;;;;;4968756;28;20954;-68
2022/09/26 05:11:08;;;;;;;1.33;0.90;;;16.40;57.80;;;;;;4956809;28;20478;-68
2022/09/26 05:13:37;;;;;;;1.10;0.90;;;16.40;57.80;;;;;;4954002;28;20430;-68
2022/09/26 05:16:07;;;;;;;0.90;0.80;;;16.40;57.70;;;;;;4972523;28;20549;-68
2022/09/26 05:18:38;;;;;;;1.23;1.13;;;16.40;57.80;;;;;;4954966;28;20863;-68
2022/09/26 05:21:09;;;;;;;1.27;0.80;;;16.40;57.70;;;;;;4955029;28;20479;-68
2022/09/26 05:26:28;;;;;;;2.90;0.90;;;16.40;57.70;;;;;;4947160;28;20535;-72
2022/09/26 05:29:00;;;;;;;1.23;1.13;;;16.40;57.60;;;;;;4969194;28;20438;-72
2022/09/26 05:31:53;;;;;;;3.03;0.70;;;16.40;57.50;;;;;;4987277;28;20543;-70
2022/09/26 05:34:25;;;;;;;1.23;1.13;;;16.30;57.50;;;;;;4955134;28;20561;-72
2022/09/26 05:36:55;;;;;;;1.67;1.57;;;16.30;57.40;;;;;;4978801;28;20474;-70
2022/09/26 05:42:14;;;;;;;1.47;0.93;;;16.30;57.30;;;;;;4951150;28;20812;-71
2022/09/26 05:44:43;;;;;;;1.40;1.30;;;16.30;57.20;;;;;;4940834;28;20493;-72
2022/09/26 05:47:12;;;;;;;1.60;1.33;;;16.30;57.30;;;;;;4957487;28;20834;-72
2022/09/26 05:49:40;;;;;;;1.37;0.97;;;16.30;57.40;;;;;;4986803;28;20441;-72
2022/09/26 05:52:13;;;;;;;0.90;0.80;;;16.30;57.20;;;;;;4987937;28;20501;-71
2022/09/26 05:54:41;;;;;;;2.00;1.10;;;16.30;57.30;;;;;;4986447;28;20544;-71
2022/09/26 05:57:31;;;;;;;1.10;0.90;;;16.30;57.10;;;;;;4923414;28;20484;-70
2022/09/26 06:00:01;;;;;;;1.33;0.80;;;16.30;57.10;;;;;;4962698;28;20478;-72
2022/09/26 06:02:55;;;;;;;2.80;1.30;;;16.30;57.20;;;;;;4980065;28;20438;-71
2022/09/26 06:05:36;;;;;;;0.80;0.60;;;16.30;57.30;;;;;;4952681;28;20517;-72
2022/09/26 06:08:12;;;;;;;1.23;1.07;;;16.30;57.00;;;;;;4970010;28;20449;-72
2022/09/26 06:10:45;;;;;;;1.03;0.80;;;16.30;57.00;;;;;;4951817;28;20475;-72
2022/09/26 06:13:15;;;;;;;0.90;0.77;;;16.30;57.10;;;;;;4965349;28;20787;-72
2022/09/26 06:15:49;;;;;;;1.40;1.20;;;16.20;57.20;;;;;;4959106;28;20498;-72
2022/09/26 06:18:18;;;;;;;1.90;1.20;;;16.20;57.10;;;;;;4951215;28;20502;-71
2022/09/26 06:20:46;;;;;;;1.47;0.70;;;16.20;57.20;;;;;;4953985;28;20834;-72
2022/09/26 06:23:15;;;;;;;0.90;0.77;;;16.20;57.20;;;;;;4969645;28;20446;-72
2022/09/26 06:25:46;;;;;;;1.03;0.60;;;16.20;57.00;;;;;;4955737;28;20482;-72
2022/09/26 06:28:16;;;;;;;1.00;0.80;;;16.20;57.10;;;;;;4959600;28;20439;-72
2022/09/26 06:30:45;;;;;;;0.80;0.60;;;16.20;57.10;;;;;;4955526;28;20532;-72
2022/09/26 06:33:27;;;;;;;1.87;1.00;;;16.20;57.20;;;;;;4949809;28;20446;-72
2022/09/26 06:36:21;;;;;;;2.57;0.93;;;16.20;57.20;;;;;;4957354;28;20494;-68
2022/09/26 06:38:54;;;;;;;3.20;1.10;;;16.20;57.20;;;;;;4953467;28;20542;-68
2022/09/26 06:41:25;;;;;;;1.30;0.90;;;16.20;57.20;;;;;;4963984;28;20462;-67
2022/09/26 06:43:55;;;;;;;1.30;1.10;;;16.20;57.20;;;;;;4972662;28;20418;-72
2022/09/26 06:46:47;;;;;;;0.87;0.87;;;16.20;57.10;;;;;;4950241;28;20496;-66
2022/09/26 06:49:21;;;;;;;2.70;1.07;;;16.20;57.10;;;;;;4981416;28;20500;-68
2022/09/26 06:52:10;;;;;;;1.10;0.90;;;16.20;57.10;;;;;;4985868;28;20500;-68
2022/09/26 06:54:38;;;;;;;0.90;0.80;;;16.20;57.10;;;;;;4970905;28;20458;-68
2022/09/26 06:57:07;;;;;;;1.00;0.80;;;16.20;57.10;;;;;;4972066;28;20474;-67
2022/09/26 06:59:43;;;;;;;2.37;0.80;;;16.20;57.10;;;;;;4980072;28;21022;-70
2022/09/26 07:02:22;;;;;;;0.80;0.80;;;16.20;57.10;;;;;;4970539;28;20450;-71
2022/09/26 07:05:02;;;;;;;6.00;1.30;;;16.20;57.00;;;;;;4949950;28;20469;-72
2022/09/26 07:07:40;;;;;;;0.70;0.70;;;16.10;56.90;;;;;;4956125;28;20439;-71
2022/09/26 07:10:14;;;;;;;2.53;0.70;;;16.20;57.00;;;;;;4953450;28;20861;-72
2022/09/26 07:12:52;;;;;;;1.40;0.80;;;16.10;56.90;;;;;;4946690;28;20497;-71
2022/09/26 07:15:23;;;;;;;0.90;0.60;;;16.10;56.90;;;;;;4953867;28;20491;-72
2022/09/26 07:17:52;;;;;;;1.50;0.90;;;16.10;57.00;;;;;;4953439;28;20962;-71
2022/09/26 07:20:41;;;;;;;1.10;0.73;;;16.10;56.90;;;;;;4970154;28;20505;-72
2022/09/26 07:23:28;;;;;;;0.90;0.70;;;16.10;57.20;;;;;;4970517;28;20451;-68
2022/09/26 07:25:57;;;;;;;0.90;0.70;;;16.10;57.10;;;;;;4945591;28;20989;-68
2022/09/26 07:28:26;;;;;;;1.20;1.10;;;16.10;56.80;;;;;;4985985;28;20447;-68
2022/09/26 07:30:58;;;;;;;0.80;0.60;;;16.10;56.80;;;;;;4977883;28;20820;-68
2022/09/26 07:33:39;;;;;;;0.83;0.60;;;16.10;56.90;;;;;;4951792;28;20458;-72
2022/09/26 07:36:10;;;;;;;2.77;0.90;;;16.10;56.90;;;;;;4954801;28;20459;-72
2022/09/26 07:38:40;;;;;;;1.57;0.70;;;16.10;56.90;;;;;;4970718;28;20810;-72
2022/09/26 07:41:09;;;;;;;1.23;0.83;;;16.10;57.00;;;;;;4959995;28;20542;-72
2022/09/26 07:43:39;;;;;;;0.87;0.70;;;16.10;57.00;;;;;;4963767;28;20442;-72
2022/09/26 07:52:32;;;;;;;1.17;0.70;;;16.10;57.00;;;;;;4986075;28;20442;-72
2022/09/26 07:55:24;;;;;;;1.53;1.40;;;16.00;57.00;;;;;;4974581;28;20481;-72
2022/09/26 07:58:11;;;;;;;1.63;1.00;;;16.00;57.00;;;;;;4971134;28;20489;-71
2022/09/26 08:01:00;;;;;;;2.53;1.33;;;16.00;57.00;;;;;;4960266;28;20831;-67
2022/09/26 08:03:48;;;;;;;0.70;0.60;;;16.00;58.20;;;;;;4971837;28;20441;-71
2022/09/26 08:06:33;;;;;;;1.77;0.70;;;16.00;57.00;;;;;;4975948;28;20980;-71
2022/09/26 08:09:02;;;;;;;1.20;0.80;;;16.10;57.10;;;;;;4949517;28;20490;-71
2022/09/26 08:11:49;;;;;;;1.03;0.80;;;16.00;57.00;;;;;;4955092;28;20818;-71
2022/09/26 08:14:31;;;;;;;1.83;0.90;;;16.00;57.00;;;;;;4955658;28;20525;-71
2022/09/26 08:17:15;;;;;;;1.10;0.60;;;16.00;57.00;;;;;;4977140;28;20470;-71
2022/09/26 08:19:45;;;;;;;1.07;0.97;;;16.00;57.10;;;;;;4969057;28;20462;-71
2022/09/26 08:22:13;;;;;;;2.40;0.90;;;16.10;57.10;;;;;;4977096;28;20503;-71
2022/09/26 08:24:48;;;;;;;2.30;0.93;;;16.00;57.10;;;;;;5013008;23;20975;-65
2022/09/26 08:27:42;;;;;;;1.50;1.00;;;16.00;57.00;;;;;;4996434;28;20429;-66
2022/09/26 08:30:13;;;;;;;1.00;0.80;;;16.00;57.00;;;;;;4990435;28;20528;-65
2022/09/26 08:32:43;;;;;;;1.93;0.83;;;16.00;57.00;;;;;;4987050;28;20504;-65
2022/09/26 08:35:16;;;;;;;3.00;1.00;;;16.00;57.00;;;;;;5001122;28;20980;-65
2022/09/26 08:38:10;;;;;;;1.30;1.20;;;16.00;57.00;;;;;;5000455;28;20559;-66
2022/09/26 08:40:46;;;;;;;1.07;0.83;;;16.00;56.90;;;;;;5006088;28;20472;-67
2022/09/26 08:43:54;;;;;;;1.27;0.80;;;16.00;57.10;;;;;;5005676;28;20451;-67
2022/09/26 08:46:57;;;;;;;4.17;0.93;;;16.00;57.10;;;;;;5003738;28;20492;-67
2022/09/26 08:49:53;;;;;;;1.10;1.00;;;16.00;57.00;;;;;;5011766;28;20976;-66
2022/09/26 08:52:30;;;;;;;1.40;0.70;;;16.00;56.90;;;;;;4990750;28;20817;-66
2022/09/26 08:55:06;;;;;;;1.00;0.90;;;16.00;56.90;;;;;;5004479;28;20457;-65
2022/09/26 08:57:40;;;;;;;0.90;0.70;;;16.00;57.10;;;;;;4996588;28;21311;-66
2022/09/26 09:00:23;;;;;;;1.10;1.00;;;16.00;57.00;;;;;;4991743;28;20457;-65
2022/09/26 09:03:24;;;;;;;1.40;0.90;;;16.00;57.20;;;;;;5000678;28;20775;-67
2022/09/26 09:06:00;;;;;;;1.93;0.90;;;16.00;56.70;;;;;;5000813;28;20526;-66
2022/09/26 09:08:35;;;;;;;4.17;0.90;;;15.90;56.50;;;;;;4984013;28;20451;-65
2022/09/26 09:11:54;;;;;;;0.80;0.80;;;15.90;56.70;;;;;;5000773;28;20452;-65
2022/09/26 09:14:41;;;;;;;1.27;0.87;;;15.90;57.00;;;;;;4996805;28;20445;-66
2022/09/26 09:17:40;;;;;;;3.07;0.90;;;15.90;57.00;;;;;;5004011;28;20465;-66
2022/09/26 09:20:56;;;;;;;1.87;0.70;;;15.90;57.00;;;;;;4993195;28;20508;-65
2022/09/26 09:23:50;;;;;;;1.23;0.60;;;15.90;56.90;;;;;;5005404;28;20544;-66
2022/09/26 09:26:27;;;;;;;1.30;0.80;;;15.90;57.00;;;;;;4989344;28;20460;-66
2022/09/26 09:29:40;;;;;;;5.13;1.30;;;15.90;57.00;;;;;;5002194;28;20484;-66
2022/09/26 09:32:50;;;;;;;1.43;0.83;;;15.90;57.00;;;;;;4950915;28;20798;-65
2022/09/26 09:35:40;;;;;;;1.73;0.97;;;15.90;57.10;;;;;;4988321;28;20998;-67
2022/09/26 09:38:46;;;;;;;2.30;0.97;;;15.90;57.20;;;;;;4983474;28;20481;-65
2022/09/26 09:41:31;;;;;;;1.30;0.90;;;15.90;57.30;;;;;;4981015;28;20457;-66
2022/09/26 09:44:05;;;;;;;1.30;1.10;;;15.90;57.40;;;;;;5007143;28;20900;-67
2022/09/26 09:46:39;;;;;;;1.80;0.90;;;15.90;57.50;;;;;;5011798;28;20571;-67
2022/09/26 09:49:19;;;;;;;1.40;0.83;;;15.90;57.80;;;;;;5004473;28;20427;-65
2022/09/26 09:52:04;;;;;;;1.10;1.00;;;15.90;57.70;;;;;;5005049;28;20506;-65
2022/09/26 09:54:48;;;;;;;1.70;1.00;;;15.90;57.60;;;;;;4994022;28;20471;-66
2022/09/26 09:57:40;;;;;;;0.80;0.70;;;15.90;57.50;;;;;;4993158;28;20952;-66
2022/09/26 10:00:15;;;;;;;1.73;0.80;;;15.90;57.50;;;;;;4986975;28;20896;-66
2022/09/26 10:03:17;;;;;;;1.07;0.90;;;15.90;57.50;;;;;;4990782;28;20468;-66
2022/09/26 10:05:53;;;;;;;1.80;0.90;;;15.90;57.50;;;;;;4999494;28;20464;-66
2022/09/26 10:08:32;;;;;;;2.13;0.90;;;15.90;57.50;;;;;;4991186;28;20433;-65
2022/09/26 10:11:31;;;;;;;2.30;0.97;;;15.90;57.50;;;;;;4997465;28;20460;-65
2022/09/26 10:14:31;;;;;;;1.10;1.00;;;15.90;57.60;;;;;;5007266;28;20500;-67
2022/09/26 10:17:21;;;;;;;1.27;0.80;;;15.90;57.50;;;;;;4997667;28;20505;-67
2022/09/26 10:20:40;;;;;;;0.90;0.70;;;15.90;57.60;;;;;;4988454;28;20450;-67
2022/09/26 10:23:21;;;;;;;2.30;1.20;;;15.90;57.50;;;;;;4983788;28;20442;-66
2022/09/26 10:25:52;;;;;;;1.30;0.70;;;15.90;57.50;;;;;;4958935;28;20818;-65
2022/09/26 10:28:34;;;;;;;2.67;0.87;;;15.90;57.50;;;;;;4993832;28;20432;-65
2022/09/26 10:31:09;;;;;;;2.13;1.00;;;15.90;57.50;;;;;;5003497;28;20556;-66
2022/09/26 10:34:23;;;;;;;1.00;0.60;;;15.90;57.40;;;;;;5001527;28;20464;-65
2022/09/26 10:36:53;;;;;;;0.83;0.60;;;15.90;57.40;;;;;;4982087;28;20465;-66
2022/09/26 10:42:23;;;;;;;1.77;1.03;;;15.90;57.50;;;;;;4970749;28;20495;-64
2022/09/26 10:45:12;;;;;;;1.40;1.00;;;15.90;57.20;;;;;;4982636;28;20536;-65
2022/09/26 10:48:20;;;;;;;1.23;0.93;;;15.90;57.20;;;;;;4948377;28;20546;-66
2022/09/26 10:51:09;;;;;;;1.57;0.90;;;15.90;57.20;;;;;;5004197;28;20469;-66
2022/09/26 10:53:55;;;;;;;0.70;0.70;;;15.80;57.20;;;;;;4999920;28;20554;-65
2022/09/26 10:56:29;;;;;;;1.83;0.80;;;15.80;57.20;;;;;;4992026;28;20531;-65
2022/09/26 10:59:09;;;;;;;2.07;1.07;;;15.80;57.20;;;;;;4977010;28;20465;-66
2022/09/26 11:01:44;;;;;;;1.40;1.27;;;15.80;57.20;;;;;;5008295;28;20514;-65
2022/09/26 11:07:37;;;;;;;1.63;0.83;;;15.80;57.10;;;;;;4996753;28;20453;-66
2022/09/26 11:10:40;;;;;;;1.30;1.17;;;15.80;57.20;;;;;;4989959;28;20468;-66
2022/09/26 11:13:24;;;;;;;2.20;1.00;;;15.80;57.20;;;;;;5000685;28;20456;-66
2022/09/26 11:16:11;;;;;;;1.50;1.20;;;15.80;57.20;;;;;;4983114;28;20516;-65
2022/09/26 11:18:52;;;;;;;0.93;0.83;;;15.80;57.20;;;;;;5006832;28;20599;-66
2022/09/26 11:21:25;;;;;;;1.40;0.90;;;15.80;57.30;;;;;;4973920;28;20456;-66
2022/09/26 11:24:06;;;;;;;1.00;0.90;;;15.80;57.30;;;;;;4987342;28;20441;-66
2022/09/26 11:26:43;;;;;;;1.60;0.83;;;15.80;57.30;;;;;;4988180;28;20472;-66
2022/09/26 11:29:17;;;;;;;1.90;1.00;;;15.80;57.30;;;;;;4991523;28;20528;-65
2022/09/26 11:32:16;;;;;;;1.20;1.00;;;15.80;57.30;;;;;;4979211;28;20461;-66
2022/09/26 11:34:55;;;;;;;1.00;0.80;;;15.80;57.30;;;;;;4996937;28;20485;-65
2022/09/26 11:37:39;;;;;;;0.80;0.70;;;15.80;57.40;;;;;;5003606;28;20984;-67
2022/09/26 11:40:33;;;;;;;2.60;0.60;;;15.80;57.40;;;;;;4999246;28;20551;-66
2022/09/26 11:43:15;;;;;;;1.70;0.80;;;15.80;57.40;;;;;;4988063;28;20434;-66
2022/09/26 11:46:03;;;;;;;1.10;0.87;;;15.80;57.40;;;;;;4970363;28;20497;-66
2022/09/26 11:49:09;;;;;;;2.00;0.90;;;15.80;58.60;;;;;;5001393;28;20482;-66
2022/09/26 11:52:29;;;;;;;1.40;0.90;;;15.80;57.30;;;;;;4980990;28;20454;-65
2022/09/26 11:55:16;;;;;;;1.37;1.27;;;15.80;57.30;;;;;;4993830;28;20438;-67
2022/09/26 11:57:58;;;;;;;0.80;0.70;;;15.80;57.40;;;;;;5000061;28;20441;-66
2022/09/26 12:00:42;;;;;;;1.10;0.93;;;15.80;57.30;;;;;;4989984;28;20478;-66
2022/09/26 12:03:37;;;;;;;1.47;0.90;;;15.80;57.40;;;;;;4999378;28;20441;-66
2022/09/26 12:06:34;;;;;;;1.37;0.90;;;15.80;57.40;;;;;;4987060;28;20476;-66
2022/09/26 12:09:24;;;;;;;1.30;0.90;;;15.80;58.40;;;;;;5004913;28;20477;-66
2022/09/26 12:12:15;;;;;;;1.20;0.70;;;15.80;57.20;;;;;;4987486;28;20442;-65
2022/09/26 12:15:09;;;;;;;1.33;0.87;;;15.80;57.10;;;;;;5006836;28;20983;-67
2022/09/26 12:17:51;;;;;;;1.03;0.90;;;15.70;58.20;;;;;;4987440;28;20951;-67
2022/09/26 12:20:32;;;;;;;0.80;0.60;;;15.80;57.10;;;;;;4975839;28;20469;-66
2022/09/26 12:23:15;;;;;;;1.13;1.03;;;15.70;57.10;;;;;;4976713;28;20515;-66
2022/09/26 12:26:00;;;;;;;1.30;1.00;;;15.80;57.20;;;;;;4985000;28;20493;-67
2022/09/26 12:29:07;;;;;;;1.47;0.77;;;15.80;57.30;;;;;;5008099;28;20482;-67
2022/09/26 12:31:50;;;;;;;2.20;0.80;;;15.80;57.30;;;;;;4951531;28;20464;-67
2022/09/26 12:34:41;;;;;;;2.97;1.23;;;15.70;57.30;;;;;;4982033;28;20529;-65
2022/09/26 12:37:24;;;;;;;1.50;0.90;;;15.80;57.70;;;;;;4987765;28;20445;-67
2022/09/26 12:40:16;;;;;;;1.33;1.00;;;15.80;57.90;;;;;;4994119;28;20552;-65
2022/09/26 12:43:22;;;;;;;0.90;0.70;;;15.70;58.00;;;;;;4982752;28;20429;-67
2022/09/26 12:46:27;;;;;;;0.93;0.70;;;15.80;58.10;;;;;;5006416;28;20488;-66
2022/09/26 12:49:36;;;;;;;1.87;0.90;;;15.80;58.10;;;;;;4979999;28;20456;-65
2022/09/26 12:52:19;;;;;;;4.30;1.43;;;15.70;58.10;;;;;;4985379;28;20444;-66
2022/09/26 12:55:21;;;;;;;1.20;1.10;;;15.80;58.20;;;;;;4958471;28;20532;-67
2022/09/26 12:58:07;;;;;;;2.03;0.93;;;15.80;58.30;;;;;;4969956;28;20441;-67
2022/09/26 13:00:45;;;;;;;1.80;1.00;;;15.70;58.10;;;;;;4964464;28;20469;-66
2022/09/26 13:03:48;;;;;;;2.97;1.30;;;15.70;58.20;;;;;;4979176;28;20465;-67
2022/09/26 13:06:33;;;;;;;2.33;1.33;;;15.80;58.50;;;;;;4978811;28;20878;-67
2022/09/26 13:09:14;;;;;;;2.40;1.03;;;15.70;58.40;;;;;;5001561;28;20450;-65
2022/09/26 13:11:56;;;;;;;1.70;1.10;;;15.70;58.30;;;;;;4989390;28;20448;-65
2022/09/26 13:14:44;;;;;;;2.07;0.97;;;15.70;58.30;;;;;;5001857;28;20565;-67
2022/09/26 13:17:21;;;;;;;1.50;1.20;;;15.70;58.60;;;;;;4978850;28;20513;-65
2022/09/26 13:19:57;;;;;;;1.20;1.10;;;15.80;58.60;;;;;;4981699;28;20698;-67
2022/09/26 13:22:34;;;;;;;1.73;1.23;;;15.80;58.60;;;;;;4992432;28;20449;-66
2022/09/26 13:25:17;;;;;;;2.03;1.27;;;15.70;58.50;;;;;;4985555;28;20491;-67
2022/09/26 13:27:53;;;;;;;2.73;1.60;;;15.80;58.80;;;;;;4985737;28;20503;-67
2022/09/26 13:30:25;;;;;;;1.30;0.97;;;15.80;58.60;;;;;;4976833;28;20822;-67
2022/09/26 13:33:02;;;;;;;1.30;0.90;;;15.70;58.80;;;;;;4998159;28;20486;-68
2022/09/26 13:35:34;;;;;;;1.30;1.20;;;15.70;58.70;;;;;;4986981;28;20472;-67
2022/09/26 13:38:26;;;;;;;2.40;1.00;;;15.80;58.80;;;;;;4992245;28;20459;-67
2022/09/26 13:41:03;;;;;;;1.20;1.00;;;15.70;58.60;;;;;;4990142;28;20479;-66
2022/09/26 13:43:52;;;;;;;1.53;1.00;;;15.70;58.50;;;;;;4989472;28;20436;-67
2022/09/26 13:46:32;;;;;;;1.47;0.90;;;15.70;58.60;;;;;;5000797;28;20491;-65
2022/09/26 13:49:16;;;;;;;1.13;0.90;;;15.80;58.80;;;;;;4993663;28;20432;-67
2022/09/26 13:51:51;;;;;;;2.40;1.20;;;15.70;58.90;;;;;;4985033;28;20464;-65
2022/09/26 13:54:26;;;;;;;1.00;0.70;;;15.80;58.60;;;;;;4990814;28;20444;-66
2022/09/26 13:56:55;;;;;;;1.83;0.80;;;15.70;58.80;;;;;;4984419;28;20480;-66
2022/09/26 13:59:49;;;;;;;0.80;0.80;;;15.80;58.80;;;;;;5001160;28;20476;-66
2022/09/26 14:02:24;;;;;;;1.13;0.70;;;15.70;58.90;;;;;;4980163;28;20486;-66
2022/09/26 14:05:09;;;;;;;0.77;0.77;;;15.70;58.80;;;;;;4998303;28;20500;-65
2022/09/26 14:10:38;;;;;;;1.00;0.70;;;15.80;58.70;;;;;;4966295;28;20536;-67
2022/09/26 14:13:20;;;;;;;0.80;0.73;;;15.70;58.60;;;;;;4988018;28;20445;-66
2022/09/26 14:16:22;;;;;;;2.30;1.13;;;15.70;58.60;;;;;;4980521;28;20527;-65